Time;durP1;ratioP1;P1;durP2;ratioP2;P2;SDS_P1;SDS_P2;PMS_P1;PMS_P2;Temp;Humidity;BMP_temperature;BMP_pressure;BME280_temperature;BME280_humidity;BME280_pressure;Samples;Min_cycle;Max_cycle;Signal;HPM_P1;HPM_P2
2022/09/28 00:01:27;;;;;;;4.50;2.30;;;9.90;99.90;;;;;;5137308;27;20240;-86
2022/09/28 00:03:58;;;;;;;3.37;2.07;;;9.90;99.90;;;;;;5136755;27;20206;-85
2022/09/28 00:06:28;;;;;;;4.97;2.33;;;9.80;99.90;;;;;;5136461;27;20212;-85
2022/09/28 00:09:02;;;;;;;3.60;2.17;;;9.70;99.90;;;;;;5136422;27;20299;-87
2022/09/28 00:11:29;;;;;;;4.77;1.80;;;9.70;99.90;;;;;;5135999;27;20287;-87
2022/09/28 00:14:01;;;;;;;2.30;1.60;;;9.60;99.90;;;;;;5136546;27;20202;-85
2022/09/28 00:16:30;;;;;;;2.40;1.80;;;9.60;99.90;;;;;;5135773;27;20217;-84
2022/09/28 00:18:57;;;;;;;4.40;1.90;;;9.40;99.90;;;;;;5135956;27;20203;-86
2022/09/28 00:21:26;;;;;;;2.97;1.60;;;9.40;99.90;;;;;;5131855;27;20679;-88
2022/09/28 00:24:14;;;;;;;4.40;1.97;;;9.50;99.90;;;;;;5124622;27;20208;-88
2022/09/28 00:26:46;;;;;;;5.93;1.93;;;9.50;99.90;;;;;;5114752;28;20642;-85
2022/09/28 00:29:20;;;;;;;5.13;1.70;;;9.50;99.90;;;;;;5114781;28;20552;-84
2022/09/28 00:31:47;;;;;;;2.57;1.80;;;9.50;99.90;;;;;;5114681;28;20287;-84
2022/09/28 00:34:15;;;;;;;4.13;2.00;;;9.50;99.90;;;;;;5114847;28;20201;-83
2022/09/28 00:36:45;;;;;;;4.33;1.80;;;9.60;99.90;;;;;;5114732;28;20636;-82
2022/09/28 00:39:14;;;;;;;3.70;1.80;;;9.70;99.90;;;;;;5114668;28;20220;-84
2022/09/28 00:41:43;;;;;;;5.07;1.80;;;9.80;99.90;;;;;;5114886;28;20192;-84
2022/09/28 00:44:35;;;;;;;3.63;1.60;;;9.70;99.90;;;;;;5114685;28;20196;-85
2022/09/28 00:47:09;;;;;;;4.90;2.10;;;9.70;99.90;;;;;;5114817;28;20204;-84
2022/09/28 00:49:42;;;;;;;3.37;1.73;;;9.80;99.90;;;;;;5114749;28;20195;-86
2022/09/28 00:52:10;;;;;;;7.57;2.70;;;9.80;99.90;;;;;;5114885;28;20227;-86
2022/09/28 00:54:38;;;;;;;2.63;1.70;;;10.00;99.90;;;;;;5114374;28;20204;-84
2022/09/28 00:57:09;;;;;;;4.87;1.80;;;9.90;99.90;;;;;;5114747;28;20207;-85
2022/09/28 00:59:36;;;;;;;5.20;3.00;;;9.80;99.90;;;;;;5114562;28;20644;-85
2022/09/28 01:02:03;;;;;;;6.30;2.50;;;9.80;99.90;;;;;;5114767;28;20684;-86
2022/09/28 01:04:31;;;;;;;5.60;2.40;;;9.90;99.90;;;;;;5114367;28;20208;-84
2022/09/28 01:06:59;;;;;;;2.93;2.40;;;9.80;99.90;;;;;;5114263;28;20212;-83
2022/09/28 01:09:27;;;;;;;3.00;2.23;;;9.60;99.90;;;;;;5114277;28;20584;-84
2022/09/28 01:11:55;;;;;;;6.53;2.60;;;9.60;99.90;;;;;;5114665;28;20546;-84
2022/09/28 01:14:24;;;;;;;5.10;2.60;;;9.70;99.90;;;;;;5114150;28;20725;-85
2022/09/28 01:17:03;;;;;;;2.73;2.53;;;9.70;99.90;;;;;;5114296;28;20644;-84
2022/09/28 01:20:15;;;;;;;3.83;2.47;;;9.80;99.90;;;;;;5113757;28;20228;-84
2022/09/28 01:23:11;;;;;;;4.83;2.60;;;9.80;99.90;;;;;;5114159;28;20204;-83
2022/09/28 01:25:46;;;;;;;3.20;2.90;;;9.80;99.90;;;;;;5113693;28;20428;-83
2022/09/28 01:28:17;;;;;;;4.07;3.00;;;9.80;99.90;;;;;;5114083;28;20207;-84
2022/09/28 01:30:54;;;;;;;7.20;2.97;;;9.90;99.90;;;;;;5114102;28;20208;-82
2022/09/28 01:33:25;;;;;;;5.27;2.90;;;9.90;99.90;;;;;;5113509;28;20582;-82
2022/09/28 01:35:58;;;;;;;5.23;2.40;;;9.70;99.90;;;;;;5114218;28;20192;-83
2022/09/28 01:38:29;;;;;;;4.00;2.63;;;9.80;99.90;;;;;;5128421;27;20203;-84
2022/09/28 01:40:58;;;;;;;2.50;2.30;;;9.70;99.90;;;;;;5134483;27;20224;-84
2022/09/28 01:43:29;;;;;;;3.40;3.10;;;9.80;99.90;;;;;;5133774;27;20211;-84
2022/09/28 01:46:00;;;;;;;4.73;2.50;;;9.80;99.90;;;;;;5134389;27;20199;-83
2022/09/28 01:48:33;;;;;;;3.07;2.70;;;9.80;99.90;;;;;;5133634;27;20208;-84
2022/09/28 01:51:06;;;;;;;6.20;3.03;;;9.80;99.90;;;;;;5134350;27;20211;-84
2022/09/28 01:53:38;;;;;;;5.80;3.13;;;9.70;99.90;;;;;;5133667;27;20211;-84
2022/09/28 01:56:23;;;;;;;3.47;3.00;;;9.60;99.90;;;;;;5134333;27;20218;-84
2022/09/28 01:58:57;;;;;;;5.90;3.33;;;9.50;99.90;;;;;;5134058;27;20215;-85
2022/09/28 02:01:30;;;;;;;6.23;3.53;;;9.50;99.90;;;;;;5134316;28;20212;-83
2022/09/28 02:04:06;;;;;;;7.53;3.33;;;9.40;99.90;;;;;;5134244;28;20230;-85
2022/09/28 02:06:37;;;;;;;3.47;3.17;;;9.30;99.90;;;;;;5133791;28;20284;-85
2022/09/28 02:09:10;;;;;;;4.23;2.33;;;9.40;99.90;;;;;;5133656;28;20273;-84
2022/09/28 02:11:40;;;;;;;4.33;2.00;;;9.30;99.90;;;;;;5133961;28;20290;-83
2022/09/28 02:14:11;;;;;;;3.13;1.70;;;9.30;99.90;;;;;;5134245;28;20196;-84
2022/09/28 02:16:40;;;;;;;4.33;1.80;;;9.20;99.90;;;;;;5133807;28;20643;-84
2022/09/28 02:19:11;;;;;;;4.10;1.73;;;9.10;99.90;;;;;;5133663;28;20651;-84
2022/09/28 02:21:43;;;;;;;1.67;1.40;;;9.20;99.90;;;;;;5133607;28;20227;-83
2022/09/28 02:24:16;;;;;;;3.77;1.47;;;9.20;99.90;;;;;;5133690;28;20200;-83
2022/09/28 02:26:46;;;;;;;2.42;1.63;;;9.20;99.90;;;;;;5133033;28;20430;-84
2022/09/28 02:29:15;;;;;;;3.17;1.60;;;9.30;99.90;;;;;;5133594;28;20195;-83
2022/09/28 02:31:42;;;;;;;2.47;1.30;;;9.40;99.90;;;;;;5133902;27;20208;-84
2022/09/28 02:34:09;;;;;;;4.17;1.50;;;9.50;99.90;;;;;;5134172;27;20192;-84
2022/09/28 02:36:36;;;;;;;1.50;1.33;;;9.50;99.90;;;;;;5133517;27;20204;-84
2022/09/28 02:39:03;;;;;;;2.73;1.77;;;9.50;99.90;;;;;;5133591;27;20220;-84
2022/09/28 02:41:55;;;;;;;1.43;1.33;;;9.50;99.90;;;;;;5133601;27;20687;-84
2022/09/28 02:44:43;;;;;;;5.30;1.47;;;9.40;99.90;;;;;;5134231;27;20196;-84
2022/09/28 02:47:20;;;;;;;3.50;1.60;;;9.40;99.90;;;;;;5133210;27;20211;-83
2022/09/28 02:49:56;;;;;;;3.50;1.67;;;9.40;99.90;;;;;;5133738;27;20291;-84
2022/09/28 02:52:40;;;;;;;2.57;1.80;;;9.40;99.90;;;;;;5132998;27;20199;-82
2022/09/28 02:55:18;;;;;;;4.63;2.25;;;9.40;99.90;;;;;;5132973;27;20431;-84
2022/09/28 02:58:02;;;;;;;1.97;1.87;;;9.40;99.90;;;;;;5134178;27;20200;-84
2022/09/28 03:00:33;;;;;;;3.90;2.17;;;9.40;99.90;;;;;;5137079;27;20243;-84
2022/09/28 03:03:09;;;;;;;4.93;2.10;;;9.30;99.90;;;;;;5137446;27;20639;-83
2022/09/28 03:05:44;;;;;;;4.83;2.20;;;9.30;99.90;;;;;;5136938;27;20218;-84
2022/09/28 03:08:19;;;;;;;2.87;1.90;;;9.10;99.90;;;;;;5137063;27;20215;-85
2022/09/28 03:10:51;;;;;;;5.97;2.33;;;9.20;99.90;;;;;;5137204;27;20222;-83
2022/09/28 03:13:18;;;;;;;3.53;2.37;;;9.30;99.90;;;;;;5137246;27;20208;-83
2022/09/28 03:15:46;;;;;;;4.17;2.00;;;9.30;99.90;;;;;;5137049;27;20184;-83
2022/09/28 03:18:13;;;;;;;4.00;2.50;;;9.30;99.90;;;;;;5137205;27;20200;-83
2022/09/28 03:20:41;;;;;;;4.90;2.73;;;9.20;99.90;;;;;;5136568;27;20214;-85
2022/09/28 03:23:08;;;;;;;3.40;2.17;;;9.20;99.90;;;;;;5137516;27;20204;-81
2022/09/28 03:25:34;;;;;;;6.00;3.20;;;9.20;99.90;;;;;;5135810;27;20432;-83
2022/09/28 03:28:01;;;;;;;3.53;2.60;;;9.10;99.90;;;;;;5137297;27;20204;-82
2022/09/28 03:30:28;;;;;;;3.73;2.77;;;9.10;99.90;;;;;;5138047;27;20192;-89
2022/09/28 03:33:01;;;;;;;2.63;2.43;;;9.20;99.90;;;;;;5137781;27;20195;-89
2022/09/28 03:35:28;;;;;;;8.23;3.10;;;9.20;99.90;;;;;;5137633;27;20219;-86
2022/09/28 03:37:57;;;;;;;2.80;2.60;;;9.10;99.90;;;;;;5138097;27;20188;-90
2022/09/28 03:40:27;;;;;;;4.93;3.00;;;9.00;99.90;;;;;;5137587;27;20578;-88
2022/09/28 03:42:54;;;;;;;4.40;3.00;;;9.00;99.90;;;;;;5137985;27;20192;-90
2022/09/28 03:45:22;;;;;;;4.43;3.13;;;8.90;99.90;;;;;;5137757;27;20204;-90
2022/09/28 03:47:51;;;;;;;3.23;2.90;;;8.80;99.90;;;;;;5137959;27;20200;-91
2022/09/28 03:50:22;;;;;;;5.23;3.17;;;8.80;99.90;;;;;;5137286;27;20196;-89
2022/09/28 03:52:49;;;;;;;3.60;3.23;;;8.90;99.90;;;;;;5137419;27;20204;-88
2022/09/28 03:55:17;;;;;;;8.10;4.97;;;9.00;99.90;;;;;;5136747;27;20429;-89
2022/09/28 03:57:54;;;;;;;4.53;3.70;;;9.10;99.90;;;;;;5137469;27;20192;-89
2022/09/28 04:00:21;;;;;;;6.53;3.63;;;9.10;99.90;;;;;;5136981;27;20223;-85
2022/09/28 04:02:48;;;;;;;4.73;3.30;;;9.00;99.90;;;;;;5136102;27;20200;-83
2022/09/28 04:05:15;;;;;;;5.20;3.30;;;9.00;99.90;;;;;;5136099;27;20215;-82
2022/09/28 04:07:44;;;;;;;4.67;3.27;;;9.00;99.90;;;;;;5136199;27;20211;-85
2022/09/28 04:10:11;;;;;;;4.87;3.30;;;8.90;99.90;;;;;;5135693;27;20203;-83
2022/09/28 04:12:38;;;;;;;5.77;3.80;;;8.90;99.90;;;;;;5136222;27;20203;-84
2022/09/28 04:15:06;;;;;;;4.30;3.90;;;8.90;99.90;;;;;;5136482;27;20200;-86
2022/09/28 04:17:33;;;;;;;7.17;3.40;;;8.90;99.90;;;;;;5135630;27;20188;-85
2022/09/28 04:20:01;;;;;;;6.00;4.10;;;8.90;99.90;;;;;;5135996;27;20233;-86
2022/09/28 04:22:28;;;;;;;3.87;3.57;;;8.90;99.90;;;;;;5135952;27;20206;-84
2022/09/28 04:24:56;;;;;;;9.77;5.80;;;8.90;99.90;;;;;;5134199;27;20419;-84
2022/09/28 04:30:09;;;;;;;9.80;4.10;;;9.00;99.90;;;;;;5135087;27;20291;-87
2022/09/28 04:32:36;;;;;;;6.17;4.57;;;8.90;99.90;;;;;;5135931;27;20210;-84
2022/09/28 04:35:05;;;;;;;4.80;4.40;;;8.90;99.90;;;;;;5136148;27;20198;-84
2022/09/28 04:37:32;;;;;;;6.30;4.57;;;8.90;99.90;;;;;;5135879;27;20232;-86
2022/09/28 04:40:01;;;;;;;7.13;4.20;;;8.90;99.90;;;;;;5135716;27;20276;-83
2022/09/28 04:42:29;;;;;;;6.10;4.63;;;8.90;99.90;;;;;;5135540;27;20215;-83
2022/09/28 04:44:57;;;;;;;7.50;4.90;;;8.90;99.90;;;;;;5135824;27;20199;-85
2022/09/28 04:47:24;;;;;;;6.00;5.50;;;8.80;99.90;;;;;;5135161;27;20212;-83
2022/09/28 04:49:51;;;;;;;5.93;4.67;;;8.70;99.90;;;;;;5135047;27;20211;-84
2022/09/28 04:52:18;;;;;;;5.53;5.03;;;8.70;99.90;;;;;;5135324;27;20199;-85
2022/09/28 04:54:46;;;;;;;10.15;7.82;;;8.60;99.90;;;;;;5134221;27;20412;-83
2022/09/28 04:57:14;;;;;;;6.53;5.77;;;8.60;99.90;;;;;;5135525;27;20210;-83
2022/09/28 04:59:41;;;;;;;9.10;5.60;;;8.60;99.90;;;;;;5135506;27;20586;-84
2022/09/28 05:02:07;;;;;;;9.23;5.97;;;8.50;99.90;;;;;;5119110;27;20228;-82
2022/09/28 05:04:34;;;;;;;7.00;5.37;;;8.50;99.90;;;;;;5114236;27;20211;-83
2022/09/28 05:07:01;;;;;;;9.70;5.90;;;8.50;99.90;;;;;;5112465;28;20217;-82
2022/09/28 05:09:28;;;;;;;8.77;6.07;;;8.50;99.90;;;;;;5114305;28;20224;-86
2022/09/28 05:11:56;;;;;;;6.07;5.47;;;8.50;99.90;;;;;;5114722;28;20189;-87
2022/09/28 05:14:26;;;;;;;8.70;6.40;;;8.50;99.90;;;;;;5114649;28;20204;-88
2022/09/28 05:16:55;;;;;;;9.20;6.63;;;8.40;99.90;;;;;;5114922;28;20192;-84
2022/09/28 05:19:29;;;;;;;7.40;6.53;;;8.40;99.90;;;;;;5115316;28;20212;-89
2022/09/28 05:21:56;;;;;;;8.03;6.87;;;8.50;99.90;;;;;;5114026;28;20678;-90
2022/09/28 05:24:23;;;;;;;12.33;7.20;;;8.50;99.90;;;;;;5115083;28;20200;-90
2022/09/28 05:26:53;;;;;;;12.03;7.33;;;8.30;99.90;;;;;;5115128;28;20218;-89
2022/09/28 05:29:21;;;;;;;12.30;8.53;;;8.40;99.90;;;;;;5115105;28;20189;-89
2022/09/28 05:31:55;;;;;;;8.80;7.27;;;8.30;99.90;;;;;;5114613;28;20196;-90
2022/09/28 05:34:25;;;;;;;12.20;7.87;;;8.30;99.90;;;;;;5115046;28;20203;-91
2022/09/28 05:36:55;;;;;;;11.17;7.90;;;8.30;99.90;;;;;;5115145;28;20192;-90
2022/09/28 05:39:27;;;;;;;14.47;8.13;;;8.30;99.90;;;;;;5115252;28;20192;-88
2022/09/28 05:42:00;;;;;;;13.67;8.13;;;8.40;99.90;;;;;;5115136;28;20220;-91
2022/09/28 05:44:27;;;;;;;11.83;8.77;;;8.40;99.90;;;;;;5114790;28;20196;-89
2022/09/28 05:47:01;;;;;;;10.93;8.47;;;8.50;99.90;;;;;;5114799;28;20189;-89
2022/09/28 05:49:30;;;;;;;12.23;8.90;;;8.40;99.90;;;;;;5114723;28;20210;-89
2022/09/28 05:51:57;;;;;;;16.10;11.40;;;8.50;99.90;;;;;;5123266;27;20768;-91
2022/09/28 05:54:24;;;;;;;13.07;9.40;;;8.60;99.90;;;;;;5135157;27;20682;-90
2022/09/28 05:56:50;;;;;;;11.60;9.33;;;8.70;99.90;;;;;;5135535;27;20195;-90
2022/09/28 05:59:17;;;;;;;13.60;10.73;;;8.70;99.90;;;;;;5135279;27;20598;-89
2022/09/28 06:01:44;;;;;;;14.10;10.80;;;8.80;99.90;;;;;;5129284;28;20621;-87
2022/09/28 06:04:14;;;;;;;14.17;10.13;;;8.80;99.90;;;;;;5133374;28;20286;-86
2022/09/28 06:06:41;;;;;;;17.57;9.77;;;8.90;99.90;;;;;;5116922;28;20208;-88
2022/09/28 06:09:09;;;;;;;17.47;10.43;;;8.90;99.90;;;;;;5115279;28;20224;-87
2022/09/28 06:11:35;;;;;;;10.90;8.57;;;8.90;99.90;;;;;;5133699;28;20207;-89
2022/09/28 06:14:02;;;;;;;10.27;9.10;;;9.00;99.90;;;;;;5134394;27;20200;-86
2022/09/28 06:16:29;;;;;;;11.80;8.87;;;8.90;99.90;;;;;;5134543;27;20235;-89
2022/09/28 06:18:56;;;;;;;13.70;8.77;;;8.80;99.90;;;;;;5134274;27;20268;-87
2022/09/28 06:21:24;;;;;;;13.30;10.80;;;8.80;99.90;;;;;;5133806;27;20869;-87
2022/09/28 06:23:51;;;;;;;14.77;9.60;;;8.80;99.90;;;;;;5134365;27;20568;-87
2022/09/28 06:26:18;;;;;;;14.93;9.23;;;8.80;99.90;;;;;;5134687;27;20210;-86
2022/09/28 06:28:45;;;;;;;16.93;9.03;;;8.90;99.90;;;;;;5134195;27;20188;-88
2022/09/28 06:31:15;;;;;;;13.43;9.57;;;9.00;99.90;;;;;;5130867;27;20651;-91
2022/09/28 06:33:43;;;;;;;23.70;10.00;;;9.00;99.90;;;;;;5137433;27;20188;-90
2022/09/28 06:36:10;;;;;;;13.80;9.13;;;9.00;99.90;;;;;;5126269;27;20191;-90
2022/09/28 06:38:38;;;;;;;11.70;9.50;;;9.00;99.90;;;;;;5129590;27;20196;-88
2022/09/28 06:41:05;;;;;;;12.30;8.47;;;9.10;99.90;;;;;;5126333;27;20235;-88
2022/09/28 06:43:33;;;;;;;10.87;8.87;;;9.20;99.90;;;;;;5128287;27;20180;-88
2022/09/28 06:46:01;;;;;;;13.93;9.20;;;9.30;99.90;;;;;;5126362;27;20286;-88
2022/09/28 06:48:28;;;;;;;11.77;8.67;;;9.40;99.90;;;;;;5126560;27;20194;-87
2022/09/28 06:50:55;;;;;;;14.25;9.60;;;9.50;99.90;;;;;;5126034;27;20452;-91
2022/09/28 06:53:22;;;;;;;12.23;8.37;;;9.50;99.90;;;;;;5117944;28;20208;-88
2022/09/28 06:55:50;;;;;;;12.53;7.97;;;9.60;99.90;;;;;;5117684;28;20257;-90
2022/09/28 06:58:18;;;;;;;10.70;8.07;;;9.50;99.90;;;;;;5117714;28;20201;-90
2022/09/28 07:00:46;;;;;;;12.30;8.00;;;9.60;99.90;;;;;;5118671;27;20201;-87
2022/09/28 07:03:15;;;;;;;13.83;8.00;;;9.40;99.90;;;;;;5132041;27;20222;-89
2022/09/28 07:05:44;;;;;;;10.43;7.63;;;9.40;99.90;;;;;;5137059;27;20204;-90
2022/09/28 07:08:14;;;;;;;11.57;7.50;;;9.30;99.90;;;;;;5138751;27;20215;-91
2022/09/28 07:10:42;;;;;;;14.70;7.83;;;9.30;99.90;;;;;;5137946;27;20207;-87
2022/09/28 07:13:12;;;;;;;13.57;7.90;;;9.40;99.90;;;;;;5137841;27;20208;-87
2022/09/28 07:15:39;;;;;;;13.03;7.17;;;9.40;99.90;;;;;;5137960;27;20231;-87
2022/09/28 07:18:07;;;;;;;13.43;7.30;;;9.40;99.90;;;;;;5137384;27;20184;-88
2022/09/28 07:20:35;;;;;;;11.70;8.25;;;9.50;99.90;;;;;;5136960;27;20479;-86
2022/09/28 07:23:04;;;;;;;11.17;7.00;;;9.50;99.90;;;;;;5137702;27;20234;-92
2022/09/28 07:25:32;;;;;;;10.83;6.73;;;9.40;99.90;;;;;;5138174;27;20188;-90
2022/09/28 07:27:59;;;;;;;8.17;6.43;;;9.50;99.90;;;;;;5137868;27;20252;-91
2022/09/28 07:30:31;;;;;;;10.53;6.47;;;9.50;99.90;;;;;;5138147;27;20195;-90
2022/09/28 07:32:59;;;;;;;12.43;6.87;;;9.40;99.90;;;;;;5137595;27;20234;-89
2022/09/28 07:35:27;;;;;;;10.80;6.47;;;9.60;99.90;;;;;;5137623;27;20200;-89
2022/09/28 07:37:59;;;;;;;9.97;6.20;;;9.60;99.90;;;;;;5137756;27;20200;-90
2022/09/28 07:43:11;;;;;;;11.87;6.37;;;9.60;99.90;;;;;;5137373;27;20202;-89
2022/09/28 07:45:39;;;;;;;9.23;5.77;;;9.70;99.90;;;;;;5136592;27;20283;-89
2022/09/28 07:48:06;;;;;;;9.90;5.67;;;9.80;99.90;;;;;;5137338;27;20200;-89
2022/09/28 07:50:34;;;;;;;7.43;5.27;;;9.90;99.90;;;;;;5137687;27;20200;-90
2022/09/28 07:53:01;;;;;;;9.53;5.67;;;10.00;99.90;;;;;;5137158;27;20204;-89
2022/09/28 07:55:27;;;;;;;11.37;5.33;;;10.00;99.90;;;;;;5136989;27;20198;-89
2022/09/28 07:57:55;;;;;;;8.63;5.07;;;10.10;99.90;;;;;;5137009;27;20207;-90
2022/09/28 08:00:22;;;;;;;8.63;4.93;;;10.30;99.90;;;;;;5137119;27;20206;-89
2022/09/28 08:02:50;;;;;;;8.57;5.30;;;10.30;99.90;;;;;;5136985;27;20230;-89
2022/09/28 08:05:17;;;;;;;9.13;4.83;;;10.40;99.90;;;;;;5136951;27;20212;-89
2022/09/28 08:07:44;;;;;;;6.30;4.77;;;10.30;99.90;;;;;;5137030;27;20204;-89
2022/09/28 08:10:12;;;;;;;5.93;5.23;;;10.40;99.90;;;;;;5136671;27;20563;-90
2022/09/28 08:12:40;;;;;;;7.53;4.33;;;10.50;99.90;;;;;;5137040;27;20184;-90
2022/09/28 08:15:09;;;;;;;8.30;5.00;;;10.60;99.90;;;;;;5136993;27;20241;-90
2022/09/28 08:17:36;;;;;;;9.23;5.03;;;10.60;99.90;;;;;;5136906;27;20227;-90
2022/09/28 08:22:51;;;;;;;9.73;4.50;;;10.60;99.90;;;;;;5137052;27;20234;-91
2022/09/28 08:25:18;;;;;;;8.17;5.00;;;10.90;99.90;;;;;;5136266;27;20201;-90
2022/09/28 08:27:44;;;;;;;12.03;4.60;;;10.90;99.90;;;;;;5136472;27;20639;-89
2022/09/28 08:30:12;;;;;;;7.43;4.23;;;11.00;99.90;;;;;;5136576;27;20633;-89
2022/09/28 08:32:41;;;;;;;6.53;4.20;;;11.20;99.90;;;;;;5136659;27;20207;-88
2022/09/28 08:35:09;;;;;;;7.47;4.10;;;11.30;99.90;;;;;;5136754;27;20197;-87
2022/09/28 08:37:37;;;;;;;7.83;4.37;;;11.40;99.90;;;;;;5136652;27;20533;-87
2022/09/28 08:40:05;;;;;;;7.70;3.57;;;11.50;99.90;;;;;;5136406;27;20204;-89
2022/09/28 08:42:35;;;;;;;6.17;3.90;;;11.60;99.90;;;;;;5136299;27;20220;-88
2022/09/28 08:45:08;;;;;;;5.87;4.10;;;11.70;99.90;;;;;;5135164;27;20638;-89
2022/09/28 08:50:36;;;;;;;9.45;3.85;;;11.80;99.90;;;;;;5135296;27;20410;-90
2022/09/28 08:53:14;;;;;;;8.93;4.00;;;11.80;99.90;;;;;;5135853;27;20227;-90
2022/09/28 08:55:44;;;;;;;5.50;3.33;;;11.90;99.90;;;;;;5136009;27;20206;-89
2022/09/28 08:58:14;;;;;;;4.97;2.83;;;11.90;99.90;;;;;;5135866;27;20641;-89
2022/09/28 09:00:45;;;;;;;5.03;2.83;;;12.10;99.90;;;;;;5136171;27;20221;-89
2022/09/28 09:03:15;;;;;;;7.60;3.20;;;12.10;99.90;;;;;;5135957;27;20241;-90
2022/09/28 09:05:52;;;;;;;5.87;3.40;;;12.10;99.90;;;;;;5135753;27;20689;-89
2022/09/28 09:08:33;;;;;;;5.17;3.23;;;12.10;99.90;;;;;;5135473;27;20226;-88
2022/09/28 09:11:08;;;;;;;5.10;2.93;;;12.20;99.90;;;;;;5135370;27;20213;-89
2022/09/28 09:14:19;;;;;;;4.70;2.33;;;12.30;99.90;;;;;;5135319;27;20208;-88
2022/09/28 09:16:56;;;;;;;5.57;2.43;;;12.40;99.90;;;;;;5130982;27;20209;-89
2022/09/28 09:19:35;;;;;;;5.07;2.07;;;12.50;99.90;;;;;;5135467;27;20228;-89
2022/09/28 09:22:12;;;;;;;4.63;2.07;;;12.50;99.90;;;;;;5135404;27;20278;-89
2022/09/28 09:24:48;;;;;;;8.07;2.53;;;12.60;99.90;;;;;;5135636;27;20233;-88
2022/09/28 09:27:31;;;;;;;6.33;1.97;;;12.60;99.90;;;;;;5135453;27;20210;-87
2022/09/28 09:30:05;;;;;;;3.43;1.77;;;12.60;99.90;;;;;;5135926;27;20202;-89
2022/09/28 09:32:46;;;;;;;3.13;1.70;;;12.80;99.90;;;;;;5135323;27;20262;-89
2022/09/28 09:35:29;;;;;;;5.23;1.90;;;12.70;99.90;;;;;;5135008;27;20210;-89
2022/09/28 09:38:15;;;;;;;3.17;2.00;;;12.70;99.90;;;;;;5134984;27;20228;-86
2022/09/28 09:40:57;;;;;;;3.40;2.10;;;12.60;99.90;;;;;;5135699;27;20187;-89
2022/09/28 09:43:47;;;;;;;5.63;2.50;;;12.50;99.90;;;;;;5134685;27;20237;-89
2022/09/28 09:46:17;;;;;;;4.93;2.83;;;12.50;99.90;;;;;;5135369;27;20198;-89
2022/09/28 09:48:51;;;;;;;7.40;2.47;;;12.50;99.90;;;;;;5135049;27;20210;-88
2022/09/28 09:51:25;;;;;;;6.33;2.60;;;12.60;99.90;;;;;;5135128;27;20190;-88
2022/09/28 09:53:58;;;;;;;6.43;2.70;;;12.60;99.90;;;;;;5134973;27;20198;-90
2022/09/28 09:56:34;;;;;;;5.20;2.13;;;12.70;99.90;;;;;;5134993;27;20191;-90
2022/09/28 09:59:07;;;;;;;6.27;2.37;;;12.80;99.90;;;;;;5134875;27;20210;-89
2022/09/28 10:01:36;;;;;;;6.77;2.70;;;13.00;99.90;;;;;;5135219;27;20186;-89
2022/09/28 10:04:06;;;;;;;2.43;1.87;;;13.00;99.90;;;;;;5135022;27;20199;-88
2022/09/28 10:06:35;;;;;;;4.97;1.90;;;12.90;99.90;;;;;;5134898;28;20214;-90
2022/09/28 10:09:06;;;;;;;4.80;2.20;;;12.90;99.90;;;;;;5134420;27;20595;-89
2022/09/28 10:11:36;;;;;;;5.07;2.10;;;13.00;99.90;;;;;;5135929;28;20651;-88
2022/09/28 10:14:04;;;;;;;7.83;2.03;;;13.00;99.90;;;;;;5140827;28;20221;-90
2022/09/28 10:16:32;;;;;;;3.83;1.90;;;13.10;99.90;;;;;;5140995;28;20631;-89
2022/09/28 10:18:59;;;;;;;3.78;2.00;;;13.20;99.90;;;;;;5140621;28;20434;-90
2022/09/28 10:21:26;;;;;;;7.47;1.83;;;13.40;99.90;;;;;;5139048;28;20578;-90
2022/09/28 10:23:57;;;;;;;3.67;1.67;;;13.40;99.90;;;;;;5140949;28;20251;-90
2022/09/28 10:26:30;;;;;;;1.63;1.50;;;13.30;99.90;;;;;;5141469;28;20227;-89
2022/09/28 10:29:01;;;;;;;5.60;1.40;;;13.40;99.90;;;;;;5137921;28;20207;-89
2022/09/28 10:31:35;;;;;;;4.13;1.80;;;13.50;99.90;;;;;;5139380;27;20204;-88
2022/09/28 10:34:03;;;;;;;6.33;1.73;;;13.50;99.90;;;;;;5145322;28;20236;-87
2022/09/28 10:36:37;;;;;;;2.83;1.90;;;13.40;99.90;;;;;;5135402;28;20237;-88
2022/09/28 10:39:05;;;;;;;1.90;1.60;;;13.50;99.90;;;;;;5135082;28;20231;-90
2022/09/28 10:41:33;;;;;;;3.97;1.80;;;13.60;99.90;;;;;;5134768;28;20191;-89
2022/09/28 10:44:06;;;;;;;3.23;1.40;;;13.70;99.90;;;;;;5134481;28;20216;-90
2022/09/28 10:46:34;;;;;;;2.70;1.43;;;13.60;99.90;;;;;;5134634;28;20207;-89
2022/09/28 10:49:04;;;;;;;4.73;1.50;;;13.70;99.90;;;;;;5134579;28;20207;-88
2022/09/28 10:51:41;;;;;;;1.07;0.97;;;13.80;99.90;;;;;;5134852;28;20188;-89
2022/09/28 10:54:15;;;;;;;1.40;1.23;;;13.80;99.90;;;;;;5134712;28;20199;-90
2022/09/28 10:56:43;;;;;;;4.67;1.37;;;13.70;99.90;;;;;;5134604;28;20195;-87
2022/09/28 10:59:41;;;;;;;2.70;1.20;;;13.80;99.90;;;;;;5134409;28;20195;-87
2022/09/28 11:02:20;;;;;;;2.93;1.20;;;14.00;99.90;;;;;;5071342;28;20233;-88
2022/09/28 11:04:53;;;;;;;3.93;1.03;;;14.00;99.90;;;;;;5124708;27;20207;-87
2022/09/28 11:07:23;;;;;;;1.47;1.13;;;14.00;99.90;;;;;;5134367;28;20193;-86
2022/09/28 11:09:51;;;;;;;2.37;1.30;;;14.40;99.90;;;;;;5134352;28;20698;-89
2022/09/28 11:12:23;;;;;;;6.33;1.20;;;14.60;99.90;;;;;;5134501;28;20219;-90
2022/09/28 11:14:57;;;;;;;3.63;1.53;;;14.70;99.90;;;;;;5134702;28;20190;-87
2022/09/28 11:17:30;;;;;;;2.53;1.50;;;14.90;99.90;;;;;;5133686;28;20419;-85
2022/09/28 11:19:58;;;;;;;1.57;0.80;;;15.20;99.90;;;;;;5134811;27;20657;-89
2022/09/28 11:22:29;;;;;;;1.70;0.80;;;15.30;99.90;;;;;;5138466;27;20218;-87
2022/09/28 11:25:19;;;;;;;1.10;0.53;;;14.90;99.90;;;;;;5137899;27;20200;-89
2022/09/28 11:27:59;;;;;;;1.73;0.73;;;14.40;99.90;;;;;;5137448;27;20231;-87
2022/09/28 11:30:29;;;;;;;4.47;0.90;;;14.20;99.90;;;;;;5116083;28;20197;-85
2022/09/28 11:33:03;;;;;;;2.90;0.90;;;13.90;99.90;;;;;;5116050;28;20695;-85
2022/09/28 11:35:44;;;;;;;2.27;0.90;;;13.70;99.90;;;;;;5116167;28;20200;-88
2022/09/28 11:38:32;;;;;;;2.13;0.80;;;13.60;99.90;;;;;;5116975;28;20640;-86
2022/09/28 11:41:16;;;;;;;1.83;1.23;;;13.60;99.90;;;;;;5117167;28;20211;-85
2022/09/28 11:44:11;;;;;;;2.27;0.83;;;13.80;99.90;;;;;;5116376;28;20702;-82
2022/09/28 11:46:50;;;;;;;4.03;1.20;;;13.90;99.90;;;;;;5116290;28;20192;-85
2022/09/28 11:49:29;;;;;;;1.53;0.87;;;14.10;99.90;;;;;;5117338;28;20197;-85
2022/09/28 11:52:00;;;;;;;1.77;0.87;;;14.20;99.90;;;;;;5117585;28;20683;-88
2022/09/28 11:54:32;;;;;;;1.40;1.00;;;14.20;99.90;;;;;;5119139;28;20200;-87
2022/09/28 11:57:03;;;;;;;2.80;1.60;;;14.30;99.90;;;;;;5120499;28;20196;-83
2022/09/28 11:59:37;;;;;;;3.10;0.70;;;14.50;99.90;;;;;;5128470;27;20317;-86
2022/09/28 12:02:14;;;;;;;1.33;0.70;;;14.60;99.90;;;;;;5116394;28;20553;-86
2022/09/28 12:04:44;;;;;;;3.13;0.67;;;14.80;99.90;;;;;;5117061;28;20555;-84
2022/09/28 12:07:16;;;;;;;1.20;0.50;;;14.90;99.90;;;;;;5118898;28;20196;-85
2022/09/28 12:09:48;;;;;;;0.67;0.67;;;14.70;99.90;;;;;;5118509;28;20216;-86
2022/09/28 12:12:23;;;;;;;3.27;1.00;;;14.60;99.90;;;;;;5119850;28;20212;-86
2022/09/28 12:14:55;;;;;;;1.70;0.80;;;14.50;99.90;;;;;;5119810;28;20240;-86
2022/09/28 12:17:26;;;;;;;2.57;0.90;;;14.50;99.90;;;;;;5126814;27;20675;-86
2022/09/28 12:19:59;;;;;;;1.83;0.87;;;14.50;99.90;;;;;;5140024;27;20212;-86
2022/09/28 12:22:32;;;;;;;2.27;1.27;;;14.60;99.90;;;;;;5140318;27;20213;-87
2022/09/28 12:25:01;;;;;;;1.63;1.00;;;14.90;99.90;;;;;;5137279;27;20212;-83
2022/09/28 12:27:41;;;;;;;3.10;1.10;;;15.10;99.90;;;;;;5136612;27;20198;-83
2022/09/28 12:30:18;;;;;;;0.97;0.60;;;15.50;99.90;;;;;;5136445;27;20227;-83
2022/09/28 12:32:50;;;;;;;1.73;0.60;;;16.00;99.90;;;;;;5135214;27;20211;-84
2022/09/28 12:35:25;;;;;;;4.17;0.60;;;16.00;99.90;;;;;;5136777;27;20200;-84
2022/09/28 12:38:14;;;;;;;1.33;0.73;;;15.70;99.90;;;;;;5136351;27;20653;-85
2022/09/28 12:40:52;;;;;;;0.70;0.53;;;15.50;99.90;;;;;;5136234;27;20647;-85
2022/09/28 12:43:54;;;;;;;1.60;0.57;;;15.50;99.90;;;;;;5135583;27;20213;-84
2022/09/28 12:46:49;;;;;;;1.00;0.60;;;15.60;99.90;;;;;;5124429;27;20235;-84
2022/09/28 12:49:33;;;;;;;0.90;0.50;;;15.50;99.90;;;;;;5133109;27;20203;-83
2022/09/28 12:52:09;;;;;;;3.00;0.63;;;15.50;99.90;;;;;;5136012;27;20210;-85
2022/09/28 12:55:10;;;;;;;1.53;0.83;;;15.50;99.90;;;;;;5136024;27;20192;-84
2022/09/28 12:57:47;;;;;;;1.27;0.90;;;15.70;99.90;;;;;;5122627;27;20214;-85
2022/09/28 13:00:17;;;;;;;2.37;0.90;;;15.80;99.90;;;;;;5135642;27;20222;-85
2022/09/28 13:03:17;;;;;;;2.00;0.57;;;15.90;99.90;;;;;;5135236;27;20225;-85
2022/09/28 13:06:20;;;;;;;1.80;0.70;;;15.80;99.90;;;;;;5135854;27;20265;-86
2022/09/28 13:09:00;;;;;;;3.40;0.80;;;15.70;99.90;;;;;;5134278;27;20684;-85
2022/09/28 13:11:33;;;;;;;0.60;0.50;;;15.70;99.90;;;;;;5135792;27;20207;-86
2022/09/28 13:14:20;;;;;;;3.17;1.08;;;15.40;99.90;;;;;;5132238;27;20367;-85
2022/09/28 13:16:52;;;;;;;2.57;0.73;;;15.40;99.90;;;;;;5115092;28;20198;-84
2022/09/28 13:19:28;;;;;;;1.23;0.70;;;15.30;99.90;;;;;;5113707;28;20191;-84
2022/09/28 13:22:02;;;;;;;0.90;0.70;;;15.30;99.90;;;;;;5114581;28;20191;-88
2022/09/28 13:24:35;;;;;;;2.87;1.10;;;15.30;99.90;;;;;;5115663;28;20223;-87
2022/09/28 13:27:09;;;;;;;1.97;0.80;;;15.40;99.90;;;;;;5116604;28;20573;-87